createdAt,value
2022-09-10T00:01:32.639Z,15.50
2022-09-10T00:04:02.470Z,15.50
2022-09-10T00:06:33.090Z,15.50
2022-09-10T00:09:02.237Z,15.50
2022-09-10T00:11:31.061Z,15.50
2022-09-10T00:13:59.563Z,15.50
2022-09-10T00:16:30.028Z,15.50
2022-09-10T00:18:58.905Z,15.50
2022-09-10T00:21:27.287Z,15.50
2022-09-10T00:23:55.389Z,15.50
2022-09-10T00:26:25.170Z,15.50
2022-09-10T00:28:55.169Z,15.50
2022-09-10T00:31:24.736Z,15.50
2022-09-10T00:33:54.795Z,15.50
2022-09-10T00:36:25.722Z,15.50
2022-09-10T00:38:55.001Z,15.50
2022-09-10T00:41:24.909Z,15.50
2022-09-10T00:43:55.608Z,15.50
2022-09-10T00:46:34.766Z,15.50
2022-09-10T00:49:10.560Z,15.50
2022-09-10T00:51:40.432Z,15.50
2022-09-10T00:54:09.426Z,15.50
2022-09-10T00:56:39.081Z,15.60
2022-09-10T00:59:10.430Z,15.50
2022-09-10T01:01:40.435Z,15.50
2022-09-10T01:04:10.865Z,15.50
2022-09-10T01:06:41.470Z,15.50
2022-09-10T01:09:11.014Z,15.50
2022-09-10T01:11:57.797Z,15.60
2022-09-10T01:14:54.587Z,15.50
2022-09-10T01:17:32.485Z,15.50
2022-09-10T01:20:40.378Z,15.50
2022-09-10T01:23:34.329Z,15.50
2022-09-10T01:26:15.477Z,15.50
2022-09-10T01:28:50.385Z,15.50
2022-09-10T01:31:26.139Z,15.50
2022-09-10T01:34:02.128Z,15.50
2022-09-10T01:36:34.144Z,15.50
2022-09-10T01:39:03.237Z,15.50
2022-09-10T01:41:32.086Z,15.50
2022-09-10T01:44:10.793Z,15.50
2022-09-10T01:46:56.744Z,15.50
2022-09-10T01:49:31.181Z,15.50
2022-09-10T01:52:16.799Z,15.50
2022-09-10T01:54:57.097Z,15.50
2022-09-10T01:57:33.841Z,15.50
2022-09-10T02:00:08.941Z,15.50
2022-09-10T02:02:47.171Z,15.50
2022-09-10T02:05:17.738Z,15.50
2022-09-10T02:07:50.822Z,15.50
2022-09-10T02:10:20.422Z,15.50
2022-09-10T02:12:48.752Z,15.50
2022-09-10T02:15:45.545Z,15.50
2022-09-10T02:18:22.618Z,15.50
2022-09-10T02:20:53.349Z,15.50
2022-09-10T02:23:26.037Z,15.50
2022-09-10T02:25:54.138Z,15.50
2022-09-10T02:28:28.839Z,15.50
2022-09-10T02:30:58.545Z,15.50
2022-09-10T02:33:27.880Z,15.50
2022-09-10T02:35:56.936Z,15.50
2022-09-10T02:38:25.078Z,15.50
2022-09-10T02:40:59.082Z,15.50
2022-09-10T02:43:27.285Z,15.50
2022-09-10T02:46:00.471Z,15.50
2022-09-10T02:48:31.078Z,15.50
2022-09-10T02:50:59.672Z,15.50
2022-09-10T02:53:30.938Z,15.50
2022-09-10T02:56:01.041Z,15.50
2022-09-10T02:58:31.348Z,15.50
2022-09-10T03:01:08.732Z,15.50
2022-09-10T03:03:37.905Z,15.50
2022-09-10T03:06:06.839Z,15.50
2022-09-10T03:08:35.746Z,15.50
2022-09-10T03:11:05.093Z,15.50
2022-09-10T03:13:35.140Z,15.50
2022-09-10T03:16:04.310Z,15.50
2022-09-10T03:18:35.806Z,15.50
2022-09-10T03:21:13.186Z,15.50
2022-09-10T03:23:41.922Z,15.50
2022-09-10T03:26:10.874Z,15.50
2022-09-10T03:28:39.443Z,15.50
2022-09-10T03:31:10.191Z,15.50
2022-09-10T03:33:46.065Z,15.50
2022-09-10T03:36:14.728Z,15.50
2022-09-10T03:38:44.801Z,15.50
2022-09-10T03:41:15.469Z,15.50
2022-09-10T03:43:43.577Z,15.50
2022-09-10T03:46:15.309Z,15.50
2022-09-10T03:48:46.912Z,15.50
2022-09-10T03:51:17.092Z,15.50
2022-09-10T03:53:46.418Z,15.50
2022-09-10T03:56:20.060Z,15.50
2022-09-10T03:58:49.107Z,15.50
2022-09-10T04:01:18.002Z,15.50
2022-09-10T04:03:49.997Z,15.50
2022-09-10T04:06:18.198Z,15.50
2022-09-10T04:08:49.685Z,15.50
2022-09-10T04:11:17.878Z,15.50
2022-09-10T04:13:46.729Z,15.50
2022-09-10T04:16:15.789Z,15.50
2022-09-10T04:18:44.034Z,15.50
2022-09-10T04:21:13.474Z,15.50
2022-09-10T04:23:43.106Z,15.50
2022-09-10T04:26:15.549Z,15.50
2022-09-10T04:28:46.143Z,15.50
2022-09-10T04:31:16.386Z,15.50
2022-09-10T04:33:45.318Z,15.50
2022-09-10T04:36:15.572Z,15.50
2022-09-10T04:38:45.154Z,15.50
2022-09-10T04:41:18.166Z,15.50
2022-09-10T04:43:46.510Z,15.50
2022-09-10T04:46:14.701Z,15.50
2022-09-10T04:48:44.325Z,15.50
2022-09-10T04:51:18.116Z,15.50
2022-09-10T04:53:55.947Z,15.50
2022-09-10T04:56:29.467Z,15.50
2022-09-10T04:58:57.618Z,15.50
2022-09-10T05:01:28.572Z,15.50
2022-09-10T05:03:56.666Z,15.50
2022-09-10T05:06:26.514Z,15.50
2022-09-10T05:08:55.737Z,15.50
2022-09-10T05:11:24.688Z,15.60
2022-09-10T05:13:53.999Z,15.50
2022-09-10T05:16:24.935Z,15.60
2022-09-10T05:18:53.201Z,15.60
2022-09-10T05:21:21.543Z,15.50
2022-09-10T05:23:51.886Z,15.60
2022-09-10T05:26:20.031Z,15.60
2022-09-10T05:28:48.775Z,15.60
2022-09-10T05:31:18.332Z,15.60
2022-09-10T05:33:47.613Z,15.60
2022-09-10T05:36:18.790Z,15.60
2022-09-10T05:38:47.020Z,15.60
2022-09-10T05:41:18.351Z,15.60
2022-09-10T05:43:50.056Z,15.60
2022-09-10T05:46:18.448Z,15.70
2022-09-10T05:48:50.954Z,15.70
2022-09-10T05:51:21.005Z,15.70
2022-09-10T05:53:50.725Z,15.70
2022-09-10T05:56:21.409Z,15.70
2022-09-10T05:58:49.619Z,15.80
2022-09-10T06:01:19.269Z,15.80
2022-09-10T06:03:47.646Z,15.80
2022-09-10T06:06:19.554Z,15.80
2022-09-10T06:08:57.756Z,15.80
2022-09-10T06:11:45.520Z,15.80
2022-09-10T06:14:14.865Z,15.80
2022-09-10T06:16:43.391Z,15.90
2022-09-10T06:19:12.551Z,15.90
2022-09-10T06:21:40.696Z,15.90
2022-09-10T06:24:08.751Z,15.90
2022-09-10T06:26:39.448Z,15.90
2022-09-10T06:29:13.301Z,16.00
2022-09-10T06:31:42.688Z,16.00
2022-09-10T06:34:11.653Z,16.00
2022-09-10T06:36:40.002Z,16.00
2022-09-10T06:39:08.152Z,16.10
2022-09-10T06:41:49.906Z,16.00
2022-09-10T06:44:37.960Z,16.10
2022-09-10T06:50:06.411Z,16.20
2022-09-10T06:52:37.802Z,16.20
2022-09-10T06:55:10.792Z,16.20
2022-09-10T06:57:45.392Z,16.20
2022-09-10T07:00:17.632Z,16.30
2022-09-10T07:02:50.714Z,16.30
2022-09-10T07:05:19.265Z,16.30
2022-09-10T07:07:47.609Z,16.40
2022-09-10T07:10:16.656Z,16.40
2022-09-10T07:12:46.085Z,16.50
2022-09-10T07:15:17.386Z,16.50
2022-09-10T07:17:47.353Z,16.50
2022-09-10T07:20:16.914Z,16.60
2022-09-10T07:22:47.607Z,16.60
2022-09-10T07:25:18.847Z,16.60
2022-09-10T07:27:58.389Z,16.70
2022-09-10T07:30:29.478Z,16.70
2022-09-10T07:32:59.102Z,16.80
2022-09-10T07:35:29.255Z,16.80
2022-09-10T07:37:57.313Z,16.80
2022-09-10T07:40:27.685Z,16.90
2022-09-10T07:42:56.679Z,16.90
2022-09-10T07:45:25.931Z,16.90
2022-09-10T07:47:54.278Z,16.90
2022-09-10T07:50:23.856Z,16.90
2022-09-10T07:52:54.632Z,16.90
2022-09-10T07:55:26.003Z,17.00
2022-09-10T07:57:59.538Z,17.00
2022-09-10T08:00:29.173Z,17.00
2022-09-10T08:03:00.978Z,17.10
2022-09-10T08:05:31.140Z,17.10
2022-09-10T08:08:01.719Z,17.10
2022-09-10T08:10:30.560Z,17.10
2022-09-10T08:12:59.473Z,17.20
2022-09-10T08:15:27.957Z,17.20
2022-09-10T08:17:59.858Z,17.20
2022-09-10T08:20:30.013Z,17.30
2022-09-10T08:22:59.681Z,17.30
2022-09-10T08:25:27.753Z,17.30
2022-09-10T08:27:58.302Z,17.40
2022-09-10T08:30:26.537Z,17.40
2022-09-10T08:32:54.795Z,17.40
2022-09-10T08:35:23.021Z,17.40
2022-09-10T08:37:52.924Z,17.50
2022-09-10T08:40:23.598Z,17.50
2022-09-10T08:42:53.242Z,17.50
2022-09-10T08:45:28.287Z,17.60
2022-09-10T08:48:02.353Z,17.70
2022-09-10T08:50:39.284Z,17.70
2022-09-10T08:53:26.300Z,17.80
2022-09-10T08:55:59.438Z,17.80
2022-09-10T08:58:34.117Z,17.80
2022-09-10T09:01:04.879Z,17.90
2022-09-10T09:03:39.070Z,17.90
2022-09-10T09:06:12.942Z,17.90
2022-09-10T09:08:49.500Z,17.90
2022-09-10T09:11:34.397Z,17.90
2022-09-10T09:14:21.196Z,17.90
2022-09-10T09:17:06.055Z,17.90
2022-09-10T09:19:38.882Z,17.90
2022-09-10T09:22:13.077Z,17.90
2022-09-10T09:24:51.406Z,17.90
2022-09-10T09:27:20.902Z,18.00
2022-09-10T09:29:57.009Z,18.00
2022-09-10T09:32:27.313Z,18.10
2022-09-10T09:34:59.492Z,18.10
2022-09-10T09:37:31.157Z,18.20
2022-09-10T09:40:15.742Z,18.30
2022-09-10T09:42:50.424Z,18.40
2022-09-10T09:45:26.430Z,18.40
2022-09-10T09:47:55.829Z,18.50
2022-09-10T09:50:24.023Z,18.50
2022-09-10T09:52:56.468Z,18.60
2022-09-10T09:55:32.887Z,18.60
2022-09-10T09:58:29.430Z,18.70
2022-09-10T10:01:15.025Z,18.80
2022-09-10T10:04:03.099Z,18.80
2022-09-10T10:06:33.550Z,18.90
2022-09-10T10:09:04.259Z,19.00
2022-09-10T10:11:53.737Z,19.00
2022-09-10T10:14:39.194Z,19.10
2022-09-10T10:17:38.341Z,19.20
2022-09-10T10:20:12.906Z,19.20
2022-09-10T10:22:43.025Z,19.30
2022-09-10T10:25:38.368Z,19.40
2022-09-10T10:28:18.846Z,19.40
2022-09-10T10:30:53.371Z,19.50
2022-09-10T10:33:27.850Z,19.60
2022-09-10T10:36:04.190Z,19.60
2022-09-10T10:38:35.786Z,19.60
2022-09-10T10:41:30.720Z,19.70
2022-09-10T10:44:24.269Z,19.70
2022-09-10T10:47:11.772Z,19.80
2022-09-10T10:49:53.240Z,19.90
2022-09-10T10:52:29.724Z,19.90
2022-09-10T10:55:07.393Z,19.90
2022-09-10T10:57:55.544Z,20.00
2022-09-10T11:00:25.753Z,20.00
2022-09-10T11:03:01.903Z,20.10
2022-09-10T11:05:33.386Z,20.10
2022-09-10T11:08:07.269Z,20.20
2022-09-10T11:10:40.419Z,20.20
2022-09-10T11:13:14.304Z,20.20
2022-09-10T11:15:49.489Z,20.30
2022-09-10T11:18:23.997Z,20.30
2022-09-10T11:21:00.820Z,20.40
2022-09-10T11:23:35.231Z,20.40
2022-09-10T11:26:08.812Z,20.50
2022-09-10T11:28:42.082Z,20.50
2022-09-10T11:31:15.621Z,20.50
2022-09-10T11:33:56.355Z,20.50
2022-09-10T11:36:29.460Z,20.50
2022-09-10T11:39:09.063Z,20.60
2022-09-10T11:41:42.226Z,20.60
2022-09-10T11:44:26.066Z,20.60
2022-09-10T11:47:03.129Z,20.60
2022-09-10T11:49:42.189Z,20.70
2022-09-10T11:52:11.977Z,20.70
2022-09-10T11:54:40.839Z,20.80
2022-09-10T11:57:14.771Z,20.80
2022-09-10T12:00:05.854Z,20.90
2022-09-10T12:03:11.494Z,21.00
2022-09-10T12:05:49.282Z,21.00
2022-09-10T12:08:29.555Z,21.00
2022-09-10T12:11:09.843Z,21.00
2022-09-10T12:13:39.364Z,21.10
2022-09-10T12:16:18.578Z,21.10
2022-09-10T12:18:51.848Z,21.10
2022-09-10T12:21:29.597Z,21.10
2022-09-10T12:23:58.321Z,21.10
2022-09-10T12:26:26.732Z,21.10
2022-09-10T12:29:03.862Z,21.10
2022-09-10T12:32:05.882Z,21.10
2022-09-10T12:34:36.190Z,21.10
2022-09-10T12:37:20.860Z,21.10
2022-09-10T12:39:49.982Z,21.20
2022-09-10T12:42:34.530Z,21.20
2022-09-10T12:45:02.871Z,21.30
2022-09-10T12:47:55.301Z,21.30
2022-09-10T12:50:33.677Z,21.40
2022-09-10T12:53:45.593Z,21.40
2022-09-10T12:56:55.814Z,21.50
2022-09-10T12:59:41.019Z,21.50
2022-09-10T13:02:22.635Z,21.60
2022-09-10T13:04:57.341Z,21.60
2022-09-10T13:07:32.656Z,21.60
2022-09-10T13:10:06.600Z,21.70
2022-09-10T13:12:36.361Z,21.70
2022-09-10T13:15:05.096Z,21.80
2022-09-10T13:18:01.275Z,21.90
2022-09-10T13:20:34.591Z,22.00
2022-09-10T13:23:05.961Z,22.00
2022-09-10T13:25:41.502Z,22.00
2022-09-10T13:28:47.054Z,22.00
2022-09-10T13:31:21.948Z,22.00
2022-09-10T13:34:12.504Z,22.00
2022-09-10T13:36:48.222Z,22.00
2022-09-10T13:39:57.377Z,21.90
2022-09-10T13:42:45.557Z,21.90
2022-09-10T13:45:23.703Z,21.90
2022-09-10T13:48:01.156Z,21.90
2022-09-10T13:50:33.817Z,21.90
2022-09-10T13:53:05.678Z,21.90
2022-09-10T13:55:36.144Z,22.00
2022-09-10T13:58:14.132Z,22.00
2022-09-10T14:00:50.206Z,22.00
2022-09-10T14:03:23.201Z,22.00
2022-09-10T14:05:54.006Z,21.90
2022-09-10T14:08:25.853Z,21.90
2022-09-10T14:11:01.396Z,21.90
2022-09-10T14:13:35.518Z,21.90
2022-09-10T14:16:07.353Z,21.90
2022-09-10T14:18:43.922Z,21.90
2022-09-10T14:21:16.103Z,21.80
2022-09-10T14:23:46.023Z,21.80
2022-09-10T14:26:23.175Z,21.80
2022-09-10T14:28:57.021Z,21.80
2022-09-10T14:31:37.588Z,21.70
2022-09-10T14:34:26.105Z,21.60
2022-09-10T14:36:54.321Z,21.60
2022-09-10T14:39:24.072Z,21.50
2022-09-10T14:42:10.889Z,21.40
2022-09-10T14:44:42.737Z,21.40
2022-09-10T14:47:15.985Z,21.30
2022-09-10T14:49:47.173Z,21.30
2022-09-10T14:52:15.994Z,21.30
2022-09-10T14:54:44.137Z,21.30
2022-09-10T14:57:15.901Z,21.30
2022-09-10T14:59:46.258Z,21.30
2022-09-10T15:02:17.499Z,21.30
2022-09-10T15:04:46.681Z,21.30
2022-09-10T15:07:15.017Z,21.30
2022-09-10T15:09:43.365Z,21.30
2022-09-10T15:12:19.548Z,21.30
2022-09-10T15:14:47.713Z,21.30
2022-09-10T15:17:17.571Z,21.30
2022-09-10T15:19:47.152Z,21.30
2022-09-10T15:22:23.523Z,21.30
2022-09-10T15:25:09.157Z,21.30
2022-09-10T15:27:39.577Z,21.30
2022-09-10T15:30:08.715Z,21.30
2022-09-10T15:32:36.777Z,21.30
2022-09-10T15:35:05.821Z,21.20
2022-09-10T15:37:34.016Z,21.20
2022-09-10T15:40:02.105Z,21.20
2022-09-10T15:42:31.990Z,21.20
2022-09-10T15:45:01.606Z,21.20
2022-09-10T15:47:33.514Z,21.20
2022-09-10T15:50:01.631Z,21.20
2022-09-10T15:52:30.006Z,21.20
2022-09-10T15:54:58.098Z,21.20
2022-09-10T15:57:26.281Z,21.20
2022-09-10T15:59:54.486Z,21.30
2022-09-10T16:02:25.381Z,21.30
2022-09-10T16:04:53.919Z,21.30
2022-09-10T16:07:22.071Z,21.30
2022-09-10T16:09:50.408Z,21.30
2022-09-10T16:12:18.662Z,21.30
2022-09-10T16:14:46.891Z,21.30
2022-09-10T16:17:17.286Z,21.30
2022-09-10T16:19:46.878Z,21.30
2022-09-10T16:22:19.969Z,21.20
2022-09-10T16:24:48.764Z,21.20
2022-09-10T16:27:17.651Z,21.20
2022-09-10T16:29:47.038Z,21.30
2022-09-10T16:32:15.432Z,21.30
2022-09-10T16:34:43.674Z,21.30
2022-09-10T16:37:14.193Z,21.30
2022-09-10T16:39:42.524Z,21.30
2022-09-10T16:42:10.897Z,21.40
2022-09-10T16:44:39.427Z,21.40
2022-09-10T16:47:07.946Z,21.40
2022-09-10T16:49:36.174Z,21.50
2022-09-10T16:52:05.139Z,21.60
2022-09-10T16:54:34.539Z,21.70
2022-09-10T16:57:02.614Z,21.80
2022-09-10T16:59:30.737Z,21.70
2022-09-10T17:02:00.677Z,21.70
2022-09-10T17:04:29.462Z,21.60
2022-09-10T17:06:58.089Z,21.50
2022-09-10T17:09:26.630Z,21.40
2022-09-10T17:11:56.401Z,21.30
2022-09-10T17:14:24.753Z,21.20
2022-09-10T17:16:53.179Z,21.10
2022-09-10T17:19:26.184Z,21.10
2022-09-10T17:21:56.178Z,21.00
2022-09-10T17:24:25.992Z,21.00
2022-09-10T17:26:56.203Z,20.90
2022-09-10T17:29:26.767Z,20.80
2022-09-10T17:31:57.529Z,20.70
2022-09-10T17:34:27.215Z,20.70
2022-09-10T17:36:56.191Z,20.60
2022-09-10T17:39:28.066Z,20.50
2022-09-10T17:41:58.877Z,20.50
2022-09-10T17:44:27.521Z,20.40
2022-09-10T17:46:56.229Z,20.30
2022-09-10T17:49:24.669Z,20.30
2022-09-10T17:51:53.245Z,20.20
2022-09-10T17:54:21.473Z,20.20
2022-09-10T17:56:49.554Z,20.10
2022-09-10T17:59:19.266Z,20.10
2022-09-10T18:01:47.898Z,20.10
2022-09-10T18:04:16.295Z,20.00
2022-09-10T18:06:48.947Z,19.90
2022-09-10T18:09:19.867Z,19.90
2022-09-10T18:11:48.022Z,19.80
2022-09-10T18:14:18.605Z,19.80
2022-09-10T18:16:47.266Z,19.70
2022-09-10T18:19:17.662Z,19.70
2022-09-10T18:21:47.321Z,19.60
2022-09-10T18:24:17.092Z,19.60
2022-09-10T18:26:48.313Z,19.50
2022-09-10T18:29:20.044Z,19.50
2022-09-10T18:31:50.190Z,19.40
2022-09-10T18:34:23.063Z,19.40
2022-09-10T18:36:54.279Z,19.40
2022-09-10T18:39:24.308Z,19.30
2022-09-10T18:41:52.719Z,19.30
2022-09-10T18:44:24.161Z,19.20
2022-09-10T18:46:53.794Z,19.20
2022-09-10T18:49:23.410Z,19.10
2022-09-10T18:51:52.376Z,19.10
2022-09-10T18:54:21.871Z,19.00
2022-09-10T18:56:50.626Z,19.00
2022-09-10T18:59:21.182Z,19.00
2022-09-10T19:01:52.088Z,19.00
2022-09-10T19:04:23.833Z,18.90
2022-09-10T19:06:52.970Z,18.90
2022-09-10T19:09:23.546Z,18.90
2022-09-10T19:11:54.025Z,18.80
2022-09-10T19:14:26.347Z,18.80
2022-09-10T19:16:57.000Z,18.70
2022-09-10T19:19:27.533Z,18.70
2022-09-10T19:21:59.247Z,18.60
2022-09-10T19:24:51.051Z,18.60
2022-09-10T19:27:16.136Z,18.60
2022-09-10T19:29:44.378Z,18.50
2022-09-10T19:32:15.128Z,18.50
2022-09-10T19:34:43.559Z,18.50
2022-09-10T19:37:11.706Z,18.40
2022-09-10T19:39:39.869Z,18.30
2022-09-10T19:42:08.089Z,18.30
2022-09-10T19:44:36.833Z,18.30
2022-09-10T19:47:05.077Z,18.30
2022-09-10T19:49:35.324Z,18.20
2022-09-10T19:52:04.320Z,18.10
2022-09-10T19:54:32.431Z,18.10
2022-09-10T19:57:00.523Z,18.10
2022-09-10T19:59:28.591Z,18.00
2022-09-10T20:01:56.776Z,18.00
2022-09-10T20:04:25.621Z,18.00
2022-09-10T20:06:55.116Z,17.90
2022-09-10T20:09:23.200Z,17.90
2022-09-10T20:11:51.384Z,17.90
2022-09-10T20:14:19.802Z,17.80
2022-09-10T20:16:47.867Z,17.80
2022-09-10T20:19:18.815Z,17.70
2022-09-10T20:21:47.623Z,17.80
2022-09-10T20:24:17.486Z,17.70
2022-09-10T20:26:46.479Z,17.70
2022-09-10T20:29:16.444Z,17.70
2022-09-10T20:31:45.289Z,17.70
2022-09-10T20:34:15.507Z,17.70
2022-09-10T20:36:43.684Z,17.60
2022-09-10T20:39:15.013Z,17.60
2022-09-10T20:41:44.837Z,17.60
2022-09-10T20:44:15.809Z,17.60
2022-09-10T20:46:44.760Z,17.60
2022-09-10T20:49:14.158Z,17.50
2022-09-10T20:51:43.407Z,17.50
2022-09-10T20:54:13.741Z,17.50
2022-09-10T20:56:42.685Z,17.50
2022-09-10T20:59:14.983Z,17.40
2022-09-10T21:01:46.270Z,17.40
2022-09-10T21:04:15.562Z,17.40
2022-09-10T21:06:43.840Z,17.40
2022-09-10T21:09:12.572Z,17.30
2022-09-10T21:11:40.752Z,17.30
2022-09-10T21:14:09.805Z,17.30
2022-09-10T21:16:41.400Z,17.30
2022-09-10T21:19:12.403Z,17.20
2022-09-10T21:21:42.208Z,17.20
2022-09-10T21:24:13.057Z,17.20
2022-09-10T21:26:43.292Z,17.20
2022-09-10T21:29:16.331Z,17.10
2022-09-10T21:31:46.525Z,17.10
2022-09-10T21:34:15.375Z,17.00
2022-09-10T21:36:43.666Z,17.00
2022-09-10T21:39:14.689Z,17.00
2022-09-10T21:41:45.079Z,17.00
2022-09-10T21:44:17.321Z,17.00
2022-09-10T21:46:48.709Z,17.00
2022-09-10T21:49:17.316Z,16.90
2022-09-10T21:51:45.767Z,16.90
2022-09-10T21:54:17.093Z,16.90
2022-09-10T21:56:45.589Z,16.90
2022-09-10T21:59:14.482Z,16.80
2022-09-10T22:01:44.583Z,16.80
2022-09-10T22:04:18.804Z,16.80
2022-09-10T22:06:49.835Z,16.70
2022-09-10T22:09:19.785Z,16.70
2022-09-10T22:11:50.391Z,16.70
2022-09-10T22:14:20.888Z,16.70
2022-09-10T22:16:49.906Z,16.60
2022-09-10T22:19:21.669Z,16.60
2022-09-10T22:21:50.202Z,16.60
2022-09-10T22:24:19.300Z,16.60
2022-09-10T22:26:47.915Z,16.60
2022-09-10T22:29:18.380Z,16.50
2022-09-10T22:31:46.945Z,16.50
2022-09-10T22:34:16.480Z,16.50
2022-09-10T22:36:47.354Z,16.50
2022-09-10T22:39:17.681Z,16.40
2022-09-10T22:41:46.561Z,16.40
2022-09-10T22:44:15.151Z,16.40
2022-09-10T22:46:43.682Z,16.40
2022-09-10T22:49:11.858Z,16.30
2022-09-10T22:51:41.842Z,16.30
2022-09-10T22:54:15.088Z,16.30
2022-09-10T22:56:44.502Z,16.30
2022-09-10T22:59:14.611Z,16.20
2022-09-10T23:01:46.490Z,16.20
2022-09-10T23:04:15.136Z,16.20
2022-09-10T23:06:43.200Z,16.20
2022-09-10T23:09:15.845Z,16.20
2022-09-10T23:11:45.361Z,16.10
2022-09-10T23:14:17.661Z,16.10
2022-09-10T23:16:47.698Z,16.10
2022-09-10T23:19:18.007Z,16.00
2022-09-10T23:21:48.013Z,16.00
2022-09-10T23:24:19.177Z,16.00
2022-09-10T23:26:47.477Z,16.00
2022-09-10T23:29:17.005Z,15.90
2022-09-10T23:31:46.903Z,15.90
2022-09-10T23:34:16.977Z,15.90
2022-09-10T23:36:46.701Z,15.90
2022-09-10T23:39:18.000Z,15.90
2022-09-10T23:41:46.108Z,15.90
2022-09-10T23:44:15.543Z,15.90
2022-09-10T23:46:44.574Z,15.80
2022-09-10T23:49:13.084Z,15.80
2022-09-10T23:51:41.378Z,15.80
2022-09-10T23:54:10.454Z,15.80
2022-09-10T23:56:40.134Z,15.70
2022-09-10T23:59:08.926Z,15.70
